createdAt,value
2016-10-20T00:00:44.201Z,47.02
2016-10-20T00:01:57.633Z,47.58
2016-10-20T00:03:10.246Z,47.78
2016-10-20T00:04:22.679Z,47.78
2016-10-20T00:05:35.699Z,48.36
2016-10-20T00:06:48.727Z,48.46
2016-10-20T00:08:01.770Z,48.73
2016-10-20T00:09:15.285Z,48.63
2016-10-20T00:10:27.725Z,48.93
2016-10-20T00:11:40.336Z,49.22
2016-10-20T00:12:53.298Z,49.71
2016-10-20T00:14:06.338Z,49.8
2016-10-20T00:15:18.793Z,50.48
2016-10-20T00:16:32.341Z,50.19
2016-10-20T00:17:44.945Z,50.75
2016-10-20T00:18:56.867Z,50.95
2016-10-20T00:20:09.315Z,51.24
2016-10-20T00:21:21.811Z,51.43
2016-10-20T00:22:34.325Z,51.34
2016-10-20T00:23:46.760Z,52.02
2016-10-20T00:24:58.645Z,52.02
2016-10-20T00:26:10.107Z,52.31
2016-10-20T00:27:22.608Z,52.28
2016-10-20T00:28:35.084Z,53.26
2016-10-20T00:29:48.629Z,53.45
2016-10-20T00:31:00.533Z,53.81
2016-10-20T00:32:12.907Z,53.42
2016-10-20T00:33:25.546Z,53.52
2016-10-20T00:34:38.523Z,53.62
2016-10-20T00:35:51.526Z,53.72
2016-10-20T00:37:04.447Z,53.91
2016-10-20T00:38:16.433Z,54.01
2016-10-20T00:39:29.978Z,54.38
2016-10-20T00:40:43.526Z,54.38
2016-10-20T00:41:56.494Z,54.86
2016-10-20T00:43:08.468Z,54.76
2016-10-20T00:44:21.052Z,54.66
2016-10-20T00:45:32.966Z,55.15
2016-10-20T00:46:44.930Z,55.54
2016-10-20T00:47:57.912Z,55.54
2016-10-20T00:49:10.938Z,55.71
2016-10-20T00:50:23.984Z,55.61
2016-10-20T00:51:37.054Z,55.22
2016-10-20T00:52:50.504Z,55.71
2016-10-20T00:54:02.935Z,55.9
2016-10-20T00:55:16.090Z,55.41
2016-10-20T00:56:28.570Z,55.61
2016-10-20T00:57:40.997Z,55.61
2016-10-20T00:58:52.348Z,55.9
2016-10-20T01:00:04.758Z,56.26
2016-10-20T01:01:17.760Z,56.36
2016-10-20T01:02:30.776Z,56.56
2016-10-20T01:03:43.684Z,56.75
2016-10-20T01:04:56.108Z,56.46
2016-10-20T01:06:09.631Z,56.65
2016-10-20T01:07:21.477Z,56.75
2016-10-20T01:08:33.360Z,56.65
2016-10-20T01:09:46.362Z,57.14
2016-10-20T01:10:58.775Z,56.65
2016-10-20T01:12:11.135Z,56.75
2016-10-20T01:13:23.556Z,56.75
2016-10-20T01:14:36.433Z,57.33
2016-10-20T01:15:48.829Z,56.95
2016-10-20T01:17:01.354Z,57.21
2016-10-20T01:18:13.815Z,57.79
2016-10-20T01:19:26.835Z,57.6
2016-10-20T01:20:39.236Z,57.98
2016-10-20T01:21:52.698Z,58.08
2016-10-20T01:23:05.608Z,57.98
2016-10-20T01:24:17.967Z,58.18
2016-10-20T01:25:30.407Z,57.98
2016-10-20T01:26:43.476Z,57.98
2016-10-20T01:27:56.607Z,58.08
2016-10-20T01:29:09.635Z,58.28
2016-10-20T01:30:23.240Z,58.37
2016-10-20T01:31:35.682Z,59.12
2016-10-20T01:32:47.113Z,58.86
2016-10-20T01:33:59.839Z,58.93
2016-10-20T01:35:11.965Z,58.73
2016-10-20T01:36:23.935Z,59.12
2016-10-20T01:37:36.892Z,58.76
2016-10-20T01:38:48.842Z,58.83
2016-10-20T01:40:01.826Z,59.03
2016-10-20T01:41:14.230Z,59.15
2016-10-20T01:42:27.128Z,59.22
2016-10-20T01:43:39.644Z,58.93
2016-10-20T01:44:52.053Z,59.12
2016-10-20T01:46:04.402Z,59.22
2016-10-20T01:47:16.309Z,59.03
2016-10-20T01:48:28.964Z,59.41
2016-10-20T01:49:40.526Z,59.22
2016-10-20T01:50:52.450Z,59.41
2016-10-20T01:52:05.390Z,58.93
2016-10-20T01:53:18.852Z,59.12
2016-10-20T01:54:31.721Z,59.03
2016-10-20T01:55:44.568Z,59.31
2016-10-20T01:56:56.971Z,58.93
2016-10-20T01:58:09.920Z,58.93
2016-10-20T01:59:22.356Z,58.95
2016-10-20T02:00:35.955Z,58.83
2016-10-20T02:01:48.920Z,58.95
2016-10-20T02:03:01.332Z,59.03
2016-10-20T02:04:12.686Z,59.31
2016-10-20T02:05:25.647Z,59.41
2016-10-20T02:06:38.128Z,59.12
2016-10-20T02:07:50.087Z,59.22
2016-10-20T02:09:02.976Z,59.03
2016-10-20T02:10:14.885Z,59.34
2016-10-20T02:11:26.898Z,59.31
2016-10-20T02:12:38.871Z,59.61
2016-10-20T02:13:50.709Z,59.51
2016-10-20T02:15:03.882Z,59.12
2016-10-20T02:16:16.904Z,59.22
2016-10-20T02:17:30.399Z,59.31
2016-10-20T02:18:42.258Z,60.38
2016-10-20T02:19:53.642Z,60
2016-10-20T02:21:06.064Z,60.19
2016-10-20T02:22:19.673Z,60.38
2016-10-20T02:23:32.521Z,60.38
2016-10-20T02:24:44.918Z,60.16
2016-10-20T02:25:57.808Z,60.58
2016-10-20T02:27:10.760Z,60.35
2016-10-20T02:28:23.820Z,60.58
2016-10-20T02:29:36.185Z,60.38
2016-10-20T02:30:48.088Z,60.58
2016-10-20T02:32:01.017Z,60.38
2016-10-20T02:33:13.972Z,60.68
2016-10-20T02:34:27.516Z,60.68
2016-10-20T02:35:40.427Z,60.55
2016-10-20T02:36:52.307Z,60.38
2016-10-20T02:38:04.162Z,60.97
2016-10-20T02:39:16.056Z,60.74
2016-10-20T02:40:28.421Z,60.64
2016-10-20T02:41:41.386Z,60.35
2016-10-20T02:42:54.251Z,60.45
2016-10-20T02:44:07.350Z,60.35
2016-10-20T02:45:19.752Z,60.55
2016-10-20T02:46:33.185Z,60.94
2016-10-20T02:47:45.594Z,60.84
2016-10-20T02:48:59.080Z,60.84
2016-10-20T02:50:11.078Z,60.55
2016-10-20T02:51:24.505Z,60.94
2016-10-20T02:52:36.965Z,60.64
2016-10-20T02:53:49.912Z,60.55
2016-10-20T02:55:03.565Z,60.64
2016-10-20T02:56:15.004Z,60.94
2016-10-20T02:57:27.953Z,61.13
2016-10-20T02:58:39.813Z,61.49
2016-10-20T02:59:51.761Z,61.13
2016-10-20T03:01:05.244Z,61.19
2016-10-20T03:02:17.808Z,61.42
2016-10-20T03:03:30.827Z,60.71
2016-10-20T03:04:43.757Z,61.13
2016-10-20T03:05:56.434Z,61.22
2016-10-20T03:07:09.423Z,61.78
2016-10-20T03:08:21.815Z,61.91
2016-10-20T03:09:34.757Z,62.01
2016-10-20T03:10:46.604Z,61.78
2016-10-20T03:11:58.644Z,61.61
2016-10-20T03:13:11.640Z,61.1
2016-10-20T03:14:24.566Z,61.29
2016-10-20T03:15:38.096Z,61.39
2016-10-20T03:16:51.255Z,61.1
2016-10-20T03:18:03.122Z,61.98
2016-10-20T03:19:14.430Z,61.58
2016-10-20T03:20:26.855Z,61.88
2016-10-20T03:21:39.885Z,61.98
2016-10-20T03:22:52.157Z,62.16
2016-10-20T03:24:05.218Z,61.78
2016-10-20T03:25:17.641Z,61.88
2016-10-20T03:26:30.711Z,61.88
2016-10-20T03:27:43.276Z,62.16
2016-10-20T03:28:55.714Z,62.07
2016-10-20T03:30:08.655Z,62.26
2016-10-20T03:31:21.078Z,62.26
2016-10-20T03:32:34.054Z,62.46
2016-10-20T03:33:46.063Z,62.26
2016-10-20T03:34:59.029Z,62.26
2016-10-20T03:36:11.403Z,62.72
2016-10-20T03:37:23.797Z,62.75
2016-10-20T03:38:36.267Z,62.52
2016-10-20T03:39:48.129Z,62.72
2016-10-20T03:41:00.017Z,62.91
2016-10-20T03:42:12.510Z,62.91
2016-10-20T03:43:24.411Z,63.4
2016-10-20T03:44:36.851Z,63.1
2016-10-20T03:45:49.393Z,63.2
2016-10-20T03:47:02.014Z,63.3
2016-10-20T03:48:14.540Z,63.4
2016-10-20T03:49:27.064Z,63.4
2016-10-20T03:50:40.499Z,63.3
2016-10-20T03:51:53.631Z,63.4
2016-10-20T03:53:05.033Z,63.49
2016-10-20T03:54:16.531Z,63.2
2016-10-20T03:55:28.984Z,63.49
2016-10-20T03:56:41.372Z,63.2
2016-10-20T03:57:53.298Z,63.4
2016-10-20T03:59:06.313Z,63.49
2016-10-20T04:00:18.280Z,63.98
2016-10-20T04:01:30.790Z,63.98
2016-10-20T04:02:43.828Z,64.07
2016-10-20T04:03:56.343Z,63.88
2016-10-20T04:05:08.347Z,64.07
2016-10-20T04:06:20.965Z,63.88
2016-10-20T04:07:33.986Z,63.75
2016-10-20T04:08:47.019Z,63.88
2016-10-20T04:10:00.481Z,63.98
2016-10-20T04:11:12.463Z,63.78
2016-10-20T04:12:25.354Z,63.78
2016-10-20T04:13:37.259Z,63.78
2016-10-20T04:14:50.378Z,63.88
2016-10-20T04:16:03.864Z,63.78
2016-10-20T04:17:17.043Z,63.78
2016-10-20T04:18:29.508Z,63.78
2016-10-20T04:19:42.474Z,63.85
2016-10-20T04:20:55.477Z,63.85
2016-10-20T04:22:09.226Z,64.07
2016-10-20T04:23:21.776Z,63.95
2016-10-20T04:24:34.188Z,64.14
2016-10-20T04:25:47.194Z,64.24
2016-10-20T04:27:00.242Z,64.34
2016-10-20T04:28:12.729Z,64.72
2016-10-20T04:29:25.316Z,64.72
2016-10-20T04:30:38.358Z,64.43
2016-10-20T04:31:50.738Z,64.14
2016-10-20T04:33:04.566Z,64.43
2016-10-20T04:34:17.538Z,64.82
2016-10-20T04:35:30.527Z,64.53
2016-10-20T04:36:43.652Z,64.92
2016-10-20T04:37:56.015Z,65.11
2016-10-20T04:39:08.954Z,64.82
2016-10-20T04:40:21.340Z,64.72
2016-10-20T04:41:34.317Z,65.01
2016-10-20T04:42:46.755Z,65.4
2016-10-20T04:43:59.433Z,65.5
2016-10-20T04:45:12.412Z,65.5
2016-10-20T04:46:24.847Z,65.2
2016-10-20T04:47:35.689Z,65.98
2016-10-20T04:48:48.649Z,65.2
2016-10-20T04:50:00.733Z,65.5
2016-10-20T04:51:13.835Z,65.3
2016-10-20T04:52:26.260Z,65.79
2016-10-20T04:53:39.179Z,65.3
2016-10-20T04:54:51.614Z,65.3
2016-10-20T04:56:04.551Z,65.2
2016-10-20T04:57:16.984Z,65.4
2016-10-20T04:58:30.010Z,65.3
2016-10-20T04:59:42.458Z,65.3
2016-10-20T05:00:54.337Z,65.79
2016-10-20T05:02:06.221Z,65.5
2016-10-20T05:03:19.365Z,65.59
2016-10-20T05:04:31.779Z,65.4
2016-10-20T05:05:44.321Z,65.4
2016-10-20T05:06:56.806Z,65.4
2016-10-20T05:08:09.189Z,65.59
2016-10-20T05:09:21.095Z,65.59
2016-10-20T05:10:33.035Z,65.2
2016-10-20T05:11:45.587Z,65.5
2016-10-20T05:12:58.509Z,65.69
2016-10-20T05:14:10.918Z,65.79
2016-10-20T05:15:23.370Z,66.47
2016-10-20T05:16:35.889Z,65.98
2016-10-20T05:17:48.818Z,66.34
2016-10-20T05:19:01.738Z,66.56
2016-10-20T05:20:14.394Z,65.98
2016-10-20T05:21:26.841Z,65.59
2016-10-20T05:22:39.248Z,65.5
2016-10-20T05:23:51.132Z,65.75
2016-10-20T05:25:04.658Z,65.79
2016-10-20T05:26:16.538Z,66.43
2016-10-20T05:27:29.593Z,66.05
2016-10-20T05:28:42.042Z,65.95
2016-10-20T05:29:54.980Z,66.05
2016-10-20T05:31:07.934Z,66.43
2016-10-20T05:32:21.025Z,66.53
2016-10-20T05:33:33.997Z,66.53
2016-10-20T05:34:47.555Z,66.72
2016-10-20T05:36:00.475Z,66.82
2016-10-20T05:37:12.928Z,66.43
2016-10-20T05:38:25.434Z,66.53
2016-10-20T05:39:38.073Z,66.14
2016-10-20T05:40:50.556Z,66.34
2016-10-20T05:42:02.419Z,66.43
2016-10-20T05:43:14.342Z,65.95
2016-10-20T05:44:27.442Z,66.34
2016-10-20T05:45:39.817Z,66.53
2016-10-20T05:46:51.196Z,66.72
2016-10-20T05:48:04.123Z,66.72
2016-10-20T05:49:17.340Z,66.43
2016-10-20T05:50:30.449Z,66.05
2016-10-20T05:51:42.912Z,66.34
2016-10-20T05:52:54.937Z,66.72
2016-10-20T05:54:07.921Z,67.02
2016-10-20T05:55:20.843Z,66.14
2016-10-20T05:56:34.528Z,66.92
2016-10-20T05:57:47.953Z,66.63
2016-10-20T05:58:59.805Z,66.82
2016-10-20T06:00:12.376Z,67.3
2016-10-20T06:01:24.800Z,67.11
2016-10-20T06:02:37.788Z,67.11
2016-10-20T06:03:50.726Z,67.5
2016-10-20T06:05:02.662Z,67.02
2016-10-20T06:06:15.576Z,67.4
2016-10-20T06:07:28.520Z,67.3
2016-10-20T06:08:40.983Z,67.02
2016-10-20T06:09:53.346Z,67.5
2016-10-20T06:11:05.968Z,67.4
2016-10-20T06:12:19.423Z,67.5
2016-10-20T06:13:32.925Z,66.92
2016-10-20T06:14:46.457Z,67.21
2016-10-20T06:15:59.301Z,67.21
2016-10-20T06:17:12.301Z,67.02
2016-10-20T06:18:25.422Z,66.63
2016-10-20T06:19:38.404Z,66.63
2016-10-20T06:20:50.295Z,66.63
2016-10-20T06:22:03.967Z,66.6
2016-10-20T06:23:17.008Z,66.63
2016-10-20T06:24:29.940Z,66.63
2016-10-20T06:25:41.829Z,67.02
2016-10-20T06:26:53.220Z,67.3
2016-10-20T06:28:05.152Z,67.3
2016-10-20T06:29:18.951Z,67.21
2016-10-20T06:30:31.423Z,67.3
2016-10-20T06:31:43.331Z,67.46
2016-10-20T06:32:55.357Z,66.6
2016-10-20T06:34:07.740Z,66.72
2016-10-20T06:35:19.734Z,66.63
2016-10-20T06:36:32.726Z,66.63
2016-10-20T06:37:45.150Z,66.63
2016-10-20T06:38:58.699Z,66.72
2016-10-20T06:40:10.699Z,66.53
2016-10-20T06:41:23.225Z,66.63
2016-10-20T06:42:36.738Z,66.72
2016-10-20T06:43:48.265Z,67.08
2016-10-20T06:45:01.690Z,66.92
2016-10-20T06:46:15.246Z,66.92
2016-10-20T06:47:27.699Z,66.72
2016-10-20T06:48:39.605Z,66.6
2016-10-20T06:49:52.578Z,66.98
2016-10-20T06:51:05.465Z,67.08
2016-10-20T06:52:17.858Z,66.6
2016-10-20T06:53:30.833Z,66.72
2016-10-20T06:54:42.947Z,66.92
2016-10-20T06:55:55.390Z,67.18
2016-10-20T06:57:07.472Z,67.27
2016-10-20T06:58:19.882Z,66.98
2016-10-20T06:59:32.853Z,67.37
2016-10-20T07:00:45.424Z,67.6
2016-10-20T07:01:58.356Z,67.66
2016-10-20T07:03:09.716Z,68.05
2016-10-20T07:04:22.101Z,68.05
2016-10-20T07:05:34.220Z,68.24
2016-10-20T07:06:47.649Z,68.63
2016-10-20T07:08:00.632Z,68.43
2016-10-20T07:09:13.254Z,68.73
2016-10-20T07:10:26.235Z,68.73
2016-10-20T07:11:38.772Z,69.5
2016-10-20T07:12:51.672Z,69.31
2016-10-20T07:14:04.075Z,70.27
2016-10-20T07:15:16.078Z,71.34
2016-10-20T07:16:28.655Z,71.72
2016-10-20T07:17:40.571Z,72.02
2016-10-20T07:18:53.035Z,72.4
2016-10-20T07:20:05.524Z,72.79
2016-10-20T07:21:18.477Z,73.27
2016-10-20T07:22:31.060Z,73.53
2016-10-20T07:23:42.412Z,74.11
2016-10-20T07:24:55.329Z,74.01
2016-10-20T07:26:08.297Z,74.01
2016-10-20T07:27:21.961Z,74.3
2016-10-20T07:28:34.913Z,73.82
2016-10-20T07:29:47.891Z,73.82
2016-10-20T07:31:01.348Z,74.21
2016-10-20T07:32:13.307Z,74.01
2016-10-20T07:33:25.700Z,74.59
2016-10-20T07:34:38.606Z,74.59
2016-10-20T07:35:51.593Z,74.59
2016-10-20T07:37:04.638Z,74.88
2016-10-20T07:38:17.820Z,75.07
2016-10-20T07:39:30.821Z,74.98
2016-10-20T07:40:43.778Z,75.23
2016-10-20T07:41:56.713Z,75.27
2016-10-20T07:43:09.143Z,75.07
2016-10-20T07:44:22.185Z,74.98
2016-10-20T07:45:34.678Z,75.07
2016-10-20T07:46:46.704Z,75.07
2016-10-20T07:47:59.073Z,75.07
2016-10-20T07:49:11.721Z,75.13
2016-10-20T07:50:24.639Z,75.04
2016-10-20T07:51:36.021Z,75.43
2016-10-20T07:52:49.045Z,75.52
2016-10-20T07:54:00.992Z,75.33
2016-10-20T07:55:13.395Z,75.71
2016-10-20T07:56:26.907Z,75.43
2016-10-20T07:57:39.356Z,76.16
2016-10-20T07:58:51.291Z,75.87
2016-10-20T08:00:04.911Z,75.68
2016-10-20T08:01:17.432Z,75.87
2016-10-20T08:02:29.369Z,76.74
2016-10-20T08:03:41.280Z,76.55
2016-10-20T08:04:53.189Z,76.64
2016-10-20T08:06:05.174Z,76.64
2016-10-20T08:07:18.643Z,76.74
2016-10-20T08:08:31.097Z,76.55
2016-10-20T08:09:44.074Z,76.55
2016-10-20T08:10:57.584Z,76.55
2016-10-20T08:12:10.007Z,76.35
2016-10-20T08:13:23.091Z,76.26
2016-10-20T08:14:36.605Z,75.58
2016-10-20T08:15:49.041Z,75.68
2016-10-20T08:17:02.251Z,75.87
2016-10-20T08:18:15.241Z,76.06
2016-10-20T08:19:28.215Z,75.58
2016-10-20T08:20:40.635Z,75.68
2016-10-20T08:21:53.561Z,75.58
2016-10-20T08:23:06.631Z,75.1
2016-10-20T08:24:18.551Z,74.71
2016-10-20T08:25:31.518Z,75.87
2016-10-20T08:26:44.001Z,77.61
2016-10-20T08:27:56.043Z,80.61
2016-10-20T08:29:08.456Z,85.35
2016-10-20T08:30:19.843Z,89.65
2016-10-20T08:31:32.295Z,91.97
2016-10-20T08:32:43.723Z,93.56
2016-10-20T08:33:55.264Z,95.01
2016-10-20T08:35:08.235Z,95.54
2016-10-20T08:36:21.690Z,96.03
2016-10-20T08:37:34.605Z,96.46
2016-10-20T08:38:47.081Z,96.94
2016-10-20T08:39:58.914Z,97.33
2016-10-20T08:41:10.752Z,97.57
2016-10-20T08:42:22.114Z,98.34
2016-10-20T08:43:34.469Z,98.54
2016-10-20T08:44:47.066Z,98.82
2016-10-20T08:45:57.926Z,98.97
2016-10-20T08:47:10.415Z,99.07
2016-10-20T08:48:22.359Z,99.45
2016-10-20T08:49:35.277Z,99.55
2016-10-20T08:50:48.218Z,99.84
2016-10-20T08:52:00.605Z,99.99
2016-10-20T08:53:12.580Z,99.99
2016-10-20T08:54:26.130Z,99.99
2016-10-20T08:55:38.268Z,99.99
2016-10-20T08:56:51.242Z,99.99
2016-10-20T08:58:04.658Z,99.99
2016-10-20T08:59:17.075Z,99.99
2016-10-20T09:00:28.519Z,99.99
2016-10-20T09:01:41.534Z,99.99
2016-10-20T09:02:53.941Z,99.99
2016-10-20T09:04:06.397Z,99.99
2016-10-20T09:05:19.947Z,99.99
2016-10-20T09:06:30.946Z,99.99
2016-10-20T09:07:43.390Z,99.99
2016-10-20T09:08:56.943Z,99.99
2016-10-20T09:10:09.345Z,99.99
2016-10-20T09:11:22.342Z,99.99
2016-10-20T09:12:34.249Z,99.99
2016-10-20T09:13:45.661Z,99.99
2016-10-20T09:14:58.576Z,99.99
2016-10-20T09:16:11.595Z,99.99
2016-10-20T09:17:24.217Z,99.99
2016-10-20T09:18:37.633Z,99.99
2016-10-20T09:19:50.579Z,99.99
2016-10-20T09:21:02.563Z,99.99
2016-10-20T09:22:15.088Z,99.99
2016-10-20T09:23:27.239Z,99.99
2016-10-20T09:24:40.158Z,99.99
2016-10-20T09:25:53.667Z,99.99
2016-10-20T09:27:07.086Z,99.99
2016-10-20T09:28:18.600Z,99.99
2016-10-20T09:29:31.022Z,99.99
2016-10-20T09:30:43.942Z,99.99
2016-10-20T09:31:57.423Z,99.99
2016-10-20T09:33:08.819Z,99.99
2016-10-20T09:34:20.519Z,99.99
2016-10-20T09:35:33.215Z,99.99
2016-10-20T09:36:46.777Z,99.99
2016-10-20T09:37:59.715Z,99.99
2016-10-20T09:39:12.230Z,99.99
2016-10-20T09:40:24.647Z,99.99
2016-10-20T09:41:36.552Z,99.99
2016-10-20T09:42:48.991Z,99.99
2016-10-20T09:44:00.917Z,99.99
2016-10-20T09:45:15.239Z,99.99
2016-10-20T09:46:27.665Z,99.99
2016-10-20T09:47:41.195Z,99.99
2016-10-20T09:48:53.699Z,99.99
2016-10-20T09:50:06.764Z,99.99
2016-10-20T09:51:19.158Z,99.99
2016-10-20T09:52:40.421Z,99.99
2016-10-20T09:54:13.884Z,99.99
2016-10-20T09:55:46.926Z,99.99
2016-10-20T09:57:10.670Z,99.99
2016-10-20T09:58:39.086Z,99.99
2016-10-20T10:00:07.933Z,99.99
2016-10-20T10:01:29.295Z,99.99
2016-10-20T10:02:40.173Z,99.99
2016-10-20T10:03:52.614Z,99.99
2016-10-20T10:05:05.489Z,99.99
2016-10-20T10:06:18.360Z,99.99
2016-10-20T10:07:31.539Z,99.99
2016-10-20T10:08:45.140Z,99.99
2016-10-20T10:09:58.081Z,99.99
2016-10-20T10:11:10.574Z,99.99
2016-10-20T10:12:24.137Z,99.99
2016-10-20T10:13:37.579Z,99.99
2016-10-20T10:14:50.512Z,99.99
2016-10-20T10:16:02.374Z,99.99
2016-10-20T10:17:14.860Z,99.99
2016-10-20T10:18:27.316Z,99.99
2016-10-20T10:19:39.809Z,99.99
2016-10-20T10:20:52.726Z,99.99
2016-10-20T10:22:05.732Z,99.99
2016-10-20T10:23:17.722Z,99.99
2016-10-20T10:24:29.564Z,99.99
2016-10-20T10:25:41.991Z,99.99
2016-10-20T10:26:54.456Z,99.99
2016-10-20T10:28:06.894Z,99.99
2016-10-20T10:29:18.937Z,99.99
2016-10-20T10:30:31.837Z,99.99
2016-10-20T10:31:50.021Z,99.99
2016-10-20T10:33:20.243Z,99.99
2016-10-20T10:34:38.522Z,99.99
2016-10-20T10:35:50.956Z,99.99
2016-10-20T10:37:02.845Z,99.99
2016-10-20T10:38:17.335Z,99.99
2016-10-20T10:39:29.385Z,99.99
2016-10-20T10:40:42.898Z,99.99
2016-10-20T10:41:55.319Z,99.99
2016-10-20T10:43:08.282Z,99.99
2016-10-20T10:44:22.503Z,99.99
2016-10-20T10:45:35.593Z,99.99
2016-10-20T10:46:48.139Z,99.99
2016-10-20T10:48:01.088Z,99.99
2016-10-20T10:49:12.487Z,99.99
2016-10-20T10:50:25.589Z,99.99
2016-10-20T10:51:37.510Z,99.99
2016-10-20T10:52:50.415Z,99.99
2016-10-20T10:54:02.875Z,99.99
2016-10-20T10:55:14.991Z,99.99
2016-10-20T10:56:27.985Z,99.55
2016-10-20T10:57:40.427Z,98.2
2016-10-20T10:58:53.974Z,98.3
2016-10-20T11:00:06.962Z,98.49
2016-10-20T11:01:19.397Z,98.73
2016-10-20T11:02:32.953Z,98.73
2016-10-20T11:03:46.572Z,98.93
2016-10-20T11:05:00.061Z,98.93
2016-10-20T11:06:13.595Z,98.63
2016-10-20T11:07:26.785Z,98.93
2016-10-20T11:08:40.286Z,98.78
2016-10-20T11:09:53.269Z,98.97
2016-10-20T11:11:06.812Z,98.88
2016-10-20T11:12:18.899Z,98.58
2016-10-20T11:13:31.342Z,97.18
2016-10-20T11:14:42.751Z,96.31
2016-10-20T11:15:55.415Z,97.18
2016-10-20T11:17:09.390Z,96.89
2016-10-20T11:18:22.594Z,96.51
2016-10-20T11:19:34.972Z,94.38
2016-10-20T11:20:46.832Z,95.34
2016-10-20T11:21:59.268Z,96.02
2016-10-20T11:23:11.733Z,96.8
2016-10-20T11:24:23.455Z,96.26
2016-10-20T11:25:38.961Z,96.26
2016-10-20T11:27:05.472Z,96.07
2016-10-20T11:28:36.621Z,95.39
2016-10-20T11:29:50.083Z,94.71
2016-10-20T11:31:03.463Z,92.68
2016-10-20T11:32:16.672Z,91.86
2016-10-20T11:33:30.288Z,89.49
2016-10-20T11:34:43.240Z,90.41
2016-10-20T11:35:56.746Z,89.15
2016-10-20T11:37:09.183Z,87.41
2016-10-20T11:38:22.264Z,86.73
2016-10-20T11:39:34.252Z,88.47
2016-10-20T11:40:47.797Z,88.42
2016-10-20T11:42:00.747Z,88.51
2016-10-20T11:43:13.596Z,90.45
2016-10-20T11:44:26.541Z,89.29
2016-10-20T11:45:40.287Z,87.93
2016-10-20T11:46:53.261Z,86.82
2016-10-20T11:48:05.662Z,85.07
2016-10-20T11:49:17.557Z,85.27
2016-10-20T11:50:29.992Z,85.65
2016-10-20T11:51:41.917Z,82.59
2016-10-20T11:52:54.353Z,78.42
2016-10-20T11:54:06.955Z,77.65
2016-10-20T11:55:20.489Z,75.42
2016-10-20T11:56:32.387Z,73.28
2016-10-20T11:57:45.363Z,72.31
2016-10-20T11:58:57.872Z,70.37
2016-10-20T12:00:10.865Z,68.24
2016-10-20T12:01:23.777Z,65.37
2016-10-20T12:02:36.292Z,66.34
2016-10-20T12:03:48.829Z,64.78
2016-10-20T12:05:02.101Z,65.47
2016-10-20T12:06:14.500Z,65.85
2016-10-20T12:07:28.014Z,64.69
2016-10-20T12:08:41.093Z,64.2
2016-10-20T12:09:54.020Z,63.91
2016-10-20T12:11:06.963Z,63.17
2016-10-20T12:12:19.984Z,62.29
2016-10-20T12:13:32.122Z,61.22
2016-10-20T12:14:45.083Z,60.64
2016-10-20T12:15:58.210Z,60
2016-10-20T12:17:10.682Z,59.7
2016-10-20T12:18:23.100Z,60
2016-10-20T12:19:35.606Z,59.31
2016-10-20T12:20:48.000Z,58.93
2016-10-20T12:22:01.294Z,58.67
2016-10-20T12:23:13.962Z,58.28
2016-10-20T12:24:26.424Z,57.89
2016-10-20T12:25:38.361Z,57.89
2016-10-20T12:26:53.458Z,56.65
2016-10-20T12:28:06.509Z,57.23
2016-10-20T12:29:19.503Z,56.95
2016-10-20T12:30:32.521Z,56.85
2016-10-20T12:31:45.595Z,55.49
2016-10-20T12:32:58.075Z,55.49
2016-10-20T12:34:11.059Z,55.8
2016-10-20T12:35:23.572Z,54.93
2016-10-20T12:36:36.595Z,55.8
2016-10-20T12:37:54.374Z,53.86
2016-10-20T12:39:12.340Z,53.18
2016-10-20T12:40:29.368Z,52.21
2016-10-20T12:41:43.352Z,51.53
2016-10-20T12:42:55.862Z,51.17
2016-10-20T12:44:08.936Z,50.87
2016-10-20T12:45:21.406Z,50.65
2016-10-20T12:46:33.877Z,50.68
2016-10-20T12:47:46.453Z,50.29
2016-10-20T12:48:59.402Z,50.58
2016-10-20T12:50:11.822Z,49.99
2016-10-20T12:51:24.220Z,49.44
2016-10-20T12:52:36.620Z,48.85
2016-10-20T12:53:50.310Z,48.75
2016-10-20T12:55:03.449Z,48.46
2016-10-20T12:56:15.350Z,49.15
2016-10-20T12:57:28.573Z,48.56
2016-10-20T12:58:41.491Z,48.49
2016-10-20T12:59:54.584Z,47.9
2016-10-20T13:01:07.665Z,47.8
2016-10-20T13:02:52.694Z,47.34
2016-10-20T13:04:12.898Z,46.86
2016-10-20T13:05:33.704Z,45.88
2016-10-20T13:06:46.774Z,45.88
2016-10-20T13:08:00.652Z,45.88
2016-10-20T13:09:15.649Z,45.88
2016-10-20T13:10:27.750Z,45
2016-10-20T13:11:40.849Z,44.62
2016-10-20T13:12:56.120Z,44.73
2016-10-20T13:14:10.181Z,44.44
2016-10-20T13:15:22.926Z,44.54
2016-10-20T13:16:35.559Z,45.03
2016-10-20T13:17:48.852Z,44.85
2016-10-20T13:19:01.356Z,43.78
2016-10-20T13:20:16.244Z,43
2016-10-20T13:21:32.537Z,43.39
2016-10-20T13:22:45.728Z,42.61
2016-10-20T13:23:58.662Z,42.12
2016-10-20T13:25:10.731Z,42.12
2016-10-20T13:26:23.871Z,42.02
2016-10-20T13:27:37.315Z,41.44
2016-10-20T13:28:49.770Z,41.25
2016-10-20T13:30:02.846Z,41.17
2016-10-20T13:31:16.541Z,40.78
2016-10-20T13:32:28.986Z,40.19
2016-10-20T13:33:42.011Z,39.33
2016-10-20T13:34:54.445Z,39.23
2016-10-20T13:36:08.034Z,39.62
2016-10-20T13:37:21.150Z,39.23
2016-10-20T13:38:34.645Z,38.55
2016-10-20T13:39:47.074Z,38.35
2016-10-20T13:41:00.223Z,37.89
2016-10-20T13:42:13.447Z,37.11
2016-10-20T13:43:26.538Z,37.01
2016-10-20T13:44:39.445Z,36.91
2016-10-20T13:45:52.501Z,37.01
2016-10-20T13:47:04.429Z,37.3
2016-10-20T13:48:17.038Z,36.33
2016-10-20T13:49:29.478Z,36.54
2016-10-20T13:50:41.438Z,36.54
2016-10-20T13:51:53.884Z,36.63
2016-10-20T13:53:06.502Z,36.24
2016-10-20T13:54:18.538Z,35.09
2016-10-20T13:55:30.931Z,35.09
2016-10-20T13:56:43.365Z,35.38
2016-10-20T13:57:56.341Z,35.09
2016-10-20T13:59:08.986Z,35.09
2016-10-20T14:00:21.415Z,35.48
2016-10-20T14:01:33.889Z,34.99
2016-10-20T14:02:46.333Z,34.8
2016-10-20T14:03:58.868Z,34.03
2016-10-20T14:05:11.799Z,34.42
2016-10-20T14:06:24.193Z,34.03
2016-10-20T14:07:37.671Z,33.85
2016-10-20T14:08:50.096Z,33.46
2016-10-20T14:10:02.585Z,33.36
2016-10-20T14:11:15.577Z,33.09
2016-10-20T14:12:27.486Z,33.09
2016-10-20T14:13:41.153Z,32.12
2016-10-20T14:14:54.493Z,31.44
2016-10-20T14:16:07.503Z,31.44
2016-10-20T14:17:20.418Z,31.45
2016-10-20T14:18:32.877Z,30.77
2016-10-20T14:19:44.805Z,30.67
2016-10-20T14:20:57.290Z,30.68
2016-10-20T14:22:10.252Z,30.58
2016-10-20T14:23:22.708Z,29.43
2016-10-20T14:24:35.718Z,28.85
2016-10-20T14:25:48.411Z,28.65
2016-10-20T14:27:00.317Z,27.4
2016-10-20T14:28:12.835Z,26.82
2016-10-20T14:29:24.868Z,26.35
2016-10-20T14:30:37.346Z,25.67
2016-10-20T14:31:50.478Z,24.51
2016-10-20T14:33:02.982Z,24.02
2016-10-20T14:34:15.508Z,23.14
2016-10-20T14:35:28.935Z,22.95
2016-10-20T14:36:42.406Z,22.77
2016-10-20T14:37:58.180Z,22.97
2016-10-20T14:39:29.778Z,22.3
2016-10-20T14:40:52.978Z,22.22
2016-10-20T14:42:15.185Z,21.64
2016-10-20T14:43:28.725Z,21.36
2016-10-20T14:44:40.160Z,20.78
2016-10-20T14:45:52.808Z,19.42
2016-10-20T14:47:06.493Z,18.63
2016-10-20T14:48:18.445Z,18.54
2016-10-20T14:49:30.975Z,18.54
2016-10-20T14:50:42.941Z,18.35
2016-10-20T14:51:55.385Z,16.88
2016-10-20T14:53:08.489Z,16.39
2016-10-20T14:54:22.090Z,17.27
2016-10-20T14:55:35.195Z,16.28
2016-10-20T14:56:48.382Z,16.19
2016-10-20T14:58:01.653Z,16.19
2016-10-20T14:59:14.097Z,15.89
2016-10-20T15:00:26.034Z,15.11
2016-10-20T15:01:39.161Z,14.71
2016-10-20T15:02:51.225Z,14.12
2016-10-20T15:04:08.958Z,14.52
2016-10-20T15:05:21.921Z,13.92
2016-10-20T15:06:35.385Z,13.84
2016-10-20T15:07:47.900Z,13.45
2016-10-20T15:09:00.852Z,13.06
2016-10-20T15:10:12.292Z,12.87
2016-10-20T15:11:24.288Z,12.28
2016-10-20T15:12:36.777Z,12.08
2016-10-20T15:13:50.656Z,10.79
2016-10-20T15:15:03.223Z,10.9
2016-10-20T15:16:16.218Z,11
2016-10-20T15:17:28.794Z,11.49
2016-10-20T15:18:41.730Z,12.09
2016-10-20T15:19:53.699Z,10.8
2016-10-20T15:21:06.749Z,10.31
2016-10-20T15:22:19.701Z,10.02
2016-10-20T15:23:31.131Z,10.22
2016-10-20T15:24:43.597Z,9.63
2016-10-20T15:25:56.938Z,9.03
2016-10-20T15:27:09.975Z,8.94
2016-10-20T15:28:23.272Z,9.04
2016-10-20T15:29:35.390Z,8.84
2016-10-20T15:30:47.382Z,8.54
2016-10-20T15:52:49.987Z,5.36
2016-10-20T15:54:02.493Z,5.77
2016-10-20T15:55:14.792Z,5.57
2016-10-20T15:56:27.304Z,5.16
2016-10-20T15:57:40.229Z,5.16
2016-10-20T15:58:52.843Z,4.97
2016-10-20T16:00:04.763Z,4.06
2016-10-20T16:01:17.336Z,4.36
2016-10-20T16:02:30.345Z,4.77
2016-10-20T16:03:43.491Z,4.77
2016-10-20T16:04:55.954Z,4.67
2016-10-20T16:06:09.678Z,3.96